Main page
METAR-TAF:

METAR-TAF

Airports :

Francisco de Orellana Airport

Puerto Francisco de Orellana, Ecuador

latitude: 00-27-46S, longitude: 076-59-12W, elevation: 254 m

Current weather observation

The report was made 13 hours and 11 minutes ago, at 22:00 UTC
Wind 3 kt from the North/Northwest
Temperature 25°C
Humidity 89%
Pressure 1011 hPa
Visibility 10 km or more
Few clouds at a height of 2600 ft
Broken clouds at a height of 10000 ft

METAR: SECO 112200Z 34003KT 9999 FEW026 BKN100 25/23 Q1011 RMK A2987

Time: 06:11 (11:11 UTC)


TAF: missing

Weather observations and forecasts of more than 4000 airports (METAR and TAF reports).

The available stations are represented by yellow and red dots on the map.

Hover mouse over dot to see the name of the station.

Then click to see weather observations and forecasts.

To change the map : click on the green buttons with a black cross to zoom in, on the green button with a dash to zoom out, or on the green arrows for adjacent maps.


METAR-TAF: